createdAt,value
2023-03-12T00:01:03.926Z,0
2023-03-12T00:02:20.228Z,0
2023-03-12T00:03:36.517Z,0
2023-03-12T00:04:52.817Z,0
2023-03-12T00:06:09.113Z,0
2023-03-12T00:07:25.405Z,0
2023-03-12T00:08:41.713Z,0
2023-03-12T00:09:58.008Z,0
2023-03-12T00:11:14.301Z,0
2023-03-12T00:12:30.595Z,0
2023-03-12T00:13:46.881Z,0
2023-03-12T00:15:03.176Z,0
2023-03-12T00:16:19.469Z,0
2023-03-12T00:17:34.788Z,0
2023-03-12T00:18:51.091Z,0
2023-03-12T00:20:07.387Z,0
2023-03-12T00:21:23.669Z,0
2023-03-12T00:22:39.966Z,0
2023-03-12T00:23:56.270Z,0
2023-03-12T00:25:12.567Z,0
2023-03-12T00:26:28.861Z,0
2023-03-12T00:27:45.146Z,0
2023-03-12T00:29:01.450Z,0
2023-03-12T00:30:17.749Z,0
2023-03-12T00:31:34.028Z,0
2023-03-12T00:32:50.329Z,0
2023-03-12T00:34:05.646Z,0
2023-03-12T00:35:21.939Z,0
2023-03-12T00:36:38.234Z,0
2023-03-12T00:37:54.529Z,0
2023-03-12T00:39:10.835Z,0
2023-03-12T00:40:27.120Z,0
2023-03-12T00:41:43.413Z,0
2023-03-12T00:42:59.712Z,0
2023-03-12T00:44:16.001Z,0
2023-03-12T00:45:32.306Z,0
2023-03-12T00:48:04.884Z,0
2023-03-12T00:49:21.198Z,0
2023-03-12T00:50:36.510Z,0
2023-03-12T00:51:52.788Z,0
2023-03-12T00:53:09.096Z,0
2023-03-12T00:54:25.396Z,0
2023-03-12T00:55:41.674Z,0
2023-03-12T00:56:57.984Z,0
2023-03-12T00:58:14.280Z,0
2023-03-12T00:59:30.567Z,0
2023-03-12T01:00:46.860Z,0
2023-03-12T01:03:19.451Z,0
2023-03-12T01:04:35.744Z,0
2023-03-12T01:05:52.044Z,0
2023-03-12T01:07:07.351Z,0
2023-03-12T01:08:23.644Z,0
2023-03-12T01:09:39.936Z,0
2023-03-12T01:10:56.233Z,0
2023-03-12T01:12:12.534Z,0
2023-03-12T01:13:28.827Z,0
2023-03-12T01:14:45.133Z,0
2023-03-12T01:16:01.433Z,0
2023-03-12T01:17:17.718Z,0
2023-03-12T01:18:34.010Z,0
2023-03-12T01:19:50.320Z,0
2023-03-12T01:21:06.599Z,0
2023-03-12T01:22:22.891Z,0
2023-03-12T01:23:38.218Z,0
2023-03-12T01:24:54.507Z,0
2023-03-12T01:26:10.808Z,0
2023-03-12T01:27:27.103Z,0
2023-03-12T01:28:43.393Z,0
2023-03-12T01:29:59.697Z,0
2023-03-12T01:32:32.289Z,0
2023-03-12T01:33:48.574Z,0
2023-03-12T01:35:04.872Z,0
2023-03-12T01:36:21.159Z,0
2023-03-12T01:37:37.462Z,0
2023-03-12T01:38:53.763Z,0
2023-03-12T01:40:09.077Z,0
2023-03-12T01:41:25.357Z,0
2023-03-12T01:42:41.658Z,0
2023-03-12T01:43:57.963Z,0
2023-03-12T01:45:14.246Z,0
2023-03-12T01:46:30.553Z,0
2023-03-12T01:47:46.838Z,0
2023-03-12T01:49:03.142Z,0
2023-03-12T01:50:19.427Z,0
2023-03-12T01:51:35.733Z,0
2023-03-12T01:52:52.014Z,0
2023-03-12T01:54:08.322Z,0
2023-03-12T01:55:24.619Z,0
2023-03-12T01:56:39.937Z,0
2023-03-12T01:59:12.511Z,0
2023-03-12T02:00:28.827Z,0
2023-03-12T02:01:45.100Z,0
2023-03-12T02:03:01.414Z,0
2023-03-12T02:04:17.703Z,0
2023-03-12T02:05:33.999Z,0
2023-03-12T02:06:50.281Z,0
2023-03-12T02:08:06.590Z,0
2023-03-12T02:09:22.878Z,0
2023-03-12T02:10:39.168Z,0
2023-03-12T02:11:55.468Z,0
2023-03-12T02:13:10.789Z,0
2023-03-12T02:14:27.082Z,0
2023-03-12T02:15:43.372Z,0
2023-03-12T02:16:59.666Z,0
2023-03-12T02:18:15.967Z,0
2023-03-12T02:19:32.266Z,0
2023-03-12T02:20:48.566Z,0
2023-03-12T02:22:04.851Z,0
2023-03-12T02:23:21.145Z,0
2023-03-12T02:24:37.441Z,0
2023-03-12T02:25:53.735Z,0
2023-03-12T02:27:10.044Z,0
2023-03-12T02:28:26.339Z,0
2023-03-12T02:29:41.642Z,0
2023-03-12T02:30:57.938Z,0
2023-03-12T02:32:14.229Z,0
2023-03-12T02:33:30.527Z,0
2023-03-12T02:34:46.822Z,0
2023-03-12T02:36:03.116Z,0
2023-03-12T02:37:19.410Z,0
2023-03-12T02:38:35.704Z,0
2023-03-12T02:39:52.001Z,0
2023-03-12T02:42:24.605Z,0
2023-03-12T02:43:40.876Z,0
2023-03-12T02:44:57.193Z,0
2023-03-12T02:46:12.501Z,0
2023-03-12T02:47:28.796Z,0
2023-03-12T02:48:45.097Z,0
2023-03-12T02:50:01.390Z,0
2023-03-12T02:51:17.671Z,0
2023-03-12T02:52:33.971Z,0
2023-03-12T02:53:50.277Z,0
2023-03-12T02:55:06.560Z,0
2023-03-12T02:56:22.854Z,0
2023-03-12T02:57:39.166Z,0
2023-03-12T02:58:55.448Z,0
2023-03-12T03:00:11.754Z,0
2023-03-12T03:01:28.044Z,0
2023-03-12T03:02:43.364Z,0
2023-03-12T03:03:59.652Z,0
2023-03-12T03:05:15.943Z,0
2023-03-12T03:06:32.243Z,0
2023-03-12T03:07:48.535Z,0
2023-03-12T03:09:04.831Z,0
2023-03-12T03:10:20.156Z,0
2023-03-12T03:11:36.437Z,0
2023-03-12T03:12:52.735Z,0
2023-03-12T03:14:09.033Z,0
2023-03-12T03:15:25.330Z,0
2023-03-12T03:16:41.638Z,0
2023-03-12T03:17:57.926Z,0
2023-03-12T03:19:14.221Z,0
2023-03-12T03:20:30.516Z,0
2023-03-12T03:21:46.815Z,0
2023-03-12T03:23:03.104Z,0
2023-03-12T03:24:19.393Z,0
2023-03-12T03:25:35.688Z,0
2023-03-12T03:26:51.007Z,0
2023-03-12T03:28:07.313Z,0
2023-03-12T03:29:23.594Z,0
2023-03-12T03:30:39.896Z,0
2023-03-12T03:31:56.189Z,0
2023-03-12T03:33:12.486Z,0
2023-03-12T03:34:28.773Z,0
2023-03-12T03:35:45.072Z,0
2023-03-12T03:37:01.366Z,0
2023-03-12T03:38:17.672Z,0
2023-03-12T03:39:33.963Z,0
2023-03-12T03:40:50.249Z,0
2023-03-12T03:42:06.564Z,0
2023-03-12T03:43:21.860Z,0
2023-03-12T03:44:38.155Z,0
2023-03-12T03:45:54.462Z,0
2023-03-12T03:47:10.743Z,0
2023-03-12T03:48:27.054Z,0
2023-03-12T03:49:43.352Z,0
2023-03-12T03:50:59.638Z,0
2023-03-12T03:52:15.939Z,0
2023-03-12T03:53:32.233Z,0
2023-03-12T03:54:48.522Z,0
2023-03-12T03:56:04.812Z,0
2023-03-12T03:57:21.116Z,0
2023-03-12T03:58:37.407Z,0
2023-03-12T03:59:52.729Z,0
2023-03-12T04:01:09.025Z,0
2023-03-12T04:02:25.316Z,0
2023-03-12T04:03:41.614Z,0
2023-03-12T04:04:57.903Z,0
2023-03-12T04:06:14.193Z,0
2023-03-12T04:07:30.506Z,0
2023-03-12T04:08:46.794Z,0
2023-03-12T04:10:03.094Z,0
2023-03-12T04:11:19.391Z,0
2023-03-12T04:12:35.671Z,0
2023-03-12T04:13:51.977Z,0
2023-03-12T04:15:08.264Z,0
2023-03-12T04:16:23.575Z,0
2023-03-12T04:18:56.163Z,0
2023-03-12T04:20:12.463Z,0
2023-03-12T04:21:28.758Z,0
2023-03-12T04:22:45.059Z,0
2023-03-12T04:24:01.345Z,0
2023-03-12T04:25:17.655Z,0
2023-03-12T04:26:33.943Z,0
2023-03-12T04:27:50.241Z,0
2023-03-12T04:30:22.826Z,0
2023-03-12T04:31:39.120Z,0
2023-03-12T04:32:54.431Z,0
2023-03-12T04:34:10.739Z,0
2023-03-12T04:35:27.028Z,0
2023-03-12T04:36:43.325Z,0
2023-03-12T04:39:15.913Z,0
2023-03-12T04:40:31.236Z,0
2023-03-12T04:41:46.553Z,0
2023-03-12T04:43:02.850Z,0
2023-03-12T04:44:19.129Z,0
2023-03-12T04:45:35.441Z,0
2023-03-12T04:46:51.733Z,0
2023-03-12T04:48:08.026Z,0
2023-03-12T04:49:24.320Z,0
2023-03-12T04:50:40.569Z,0
2023-03-12T04:51:56.850Z,0
2023-03-12T04:53:13.156Z,0
2023-03-12T04:54:28.429Z,0
2023-03-12T04:55:43.688Z,0
2023-03-12T04:56:59.970Z,0
2023-03-12T04:58:16.272Z,0
2023-03-12T04:59:32.576Z,0
2023-03-12T05:00:48.809Z,0
2023-03-12T05:02:05.057Z,0
2023-03-12T05:03:21.316Z,0
2023-03-12T05:04:37.569Z,0
2023-03-12T05:05:53.797Z,0
2023-03-12T05:08:26.289Z,0
2023-03-12T05:09:42.522Z,0
2023-03-12T05:10:58.770Z,0
2023-03-12T05:12:14.021Z,0
2023-03-12T05:13:30.264Z,0
2023-03-12T05:14:46.506Z,0
2023-03-12T05:16:02.757Z,0
2023-03-12T05:17:18.992Z,0
2023-03-12T05:18:35.234Z,0
2023-03-12T05:19:51.474Z,0
2023-03-12T05:21:07.718Z,0
2023-03-12T05:22:23.962Z,0
2023-03-12T05:23:40.208Z,0
2023-03-12T05:26:12.692Z,5
2023-03-12T05:27:28.922Z,5
2023-03-12T05:28:44.185Z,5
2023-03-12T05:30:00.414Z,5
2023-03-12T05:31:16.658Z,5
2023-03-12T05:32:32.899Z,5
2023-03-12T05:33:49.151Z,11
2023-03-12T05:35:05.385Z,11
2023-03-12T05:36:21.627Z,11
2023-03-12T05:37:37.884Z,11
2023-03-12T05:38:54.106Z,11
2023-03-12T05:40:10.354Z,16
2023-03-12T05:41:26.589Z,16
2023-03-12T05:42:42.833Z,16
2023-03-12T05:45:15.323Z,22
2023-03-12T05:46:30.575Z,22
2023-03-12T05:47:46.830Z,22
2023-03-12T05:49:03.060Z,22
2023-03-12T05:50:19.313Z,28
2023-03-12T05:51:35.543Z,28
2023-03-12T05:52:51.796Z,28
2023-03-12T05:54:08.031Z,33
2023-03-12T05:55:24.266Z,33
2023-03-12T05:56:40.522Z,33
2023-03-12T05:57:56.757Z,39
2023-03-12T05:59:12.990Z,39
2023-03-12T06:00:29.248Z,45
2023-03-12T06:01:45.472Z,45
2023-03-12T06:03:00.738Z,45
2023-03-12T06:04:16.990Z,50
2023-03-12T06:05:33.218Z,50
2023-03-12T06:06:49.472Z,50
2023-03-12T06:08:05.714Z,56
2023-03-12T06:09:21.930Z,56
2023-03-12T06:10:38.198Z,56
2023-03-12T06:11:54.438Z,56
2023-03-12T06:13:10.668Z,61
2023-03-12T06:14:26.914Z,61
2023-03-12T06:15:43.147Z,67
2023-03-12T06:16:59.399Z,67
2023-03-12T06:18:15.639Z,73
2023-03-12T06:19:30.891Z,73
2023-03-12T06:20:47.141Z,78
2023-03-12T06:23:19.629Z,78
2023-03-12T06:24:35.857Z,78
2023-03-12T06:25:52.102Z,84
2023-03-12T06:27:08.352Z,84
2023-03-12T06:28:24.582Z,84
2023-03-12T06:29:40.826Z,84
2023-03-12T06:30:57.061Z,84
2023-03-12T06:32:13.317Z,84
2023-03-12T06:33:29.552Z,90
2023-03-12T06:34:45.784Z,90
2023-03-12T06:36:01.040Z,90
2023-03-12T06:37:17.285Z,101
2023-03-12T06:38:33.528Z,106
2023-03-12T06:39:49.773Z,106
2023-03-12T06:41:06.013Z,106
2023-03-12T06:42:22.260Z,106
2023-03-12T06:43:38.494Z,112
2023-03-12T06:44:54.750Z,112
2023-03-12T06:46:10.972Z,118
2023-03-12T06:47:27.230Z,123
2023-03-12T06:48:43.460Z,129
2023-03-12T06:49:59.699Z,129
2023-03-12T06:51:15.958Z,123
2023-03-12T06:52:31.199Z,129
2023-03-12T06:53:47.442Z,135
2023-03-12T06:55:03.691Z,140
2023-03-12T06:56:19.931Z,135
2023-03-12T06:57:36.167Z,135
2023-03-12T06:58:52.410Z,135
2023-03-12T07:01:24.896Z,135
2023-03-12T07:02:41.135Z,135
2023-03-12T07:03:57.372Z,135
2023-03-12T07:05:13.626Z,129
2023-03-12T07:06:29.867Z,129
2023-03-12T07:07:46.091Z,135
2023-03-12T07:09:01.361Z,146
2023-03-12T07:10:17.598Z,151
2023-03-12T07:11:33.830Z,157
2023-03-12T07:12:50.085Z,163
2023-03-12T07:14:06.328Z,163
2023-03-12T07:15:22.573Z,168
2023-03-12T07:16:38.799Z,174
2023-03-12T07:17:55.038Z,168
2023-03-12T07:19:11.290Z,168
2023-03-12T07:20:27.519Z,163
2023-03-12T07:21:43.761Z,163
2023-03-12T07:23:00.003Z,163
2023-03-12T07:24:16.245Z,163
2023-03-12T07:25:31.511Z,163
2023-03-12T07:26:47.758Z,163
2023-03-12T07:28:04.000Z,163
2023-03-12T07:29:20.232Z,163
2023-03-12T07:30:36.480Z,163
2023-03-12T07:31:52.728Z,163
2023-03-12T07:33:08.969Z,163
2023-03-12T07:34:25.201Z,157
2023-03-12T07:35:41.436Z,157
2023-03-12T07:36:57.681Z,157
2023-03-12T07:39:30.155Z,168
2023-03-12T07:40:46.400Z,168
2023-03-12T07:42:01.659Z,168
2023-03-12T07:43:17.911Z,174
2023-03-12T07:44:34.156Z,180
2023-03-12T07:45:50.388Z,185
2023-03-12T07:47:06.623Z,185
2023-03-12T07:48:22.870Z,185
2023-03-12T07:49:39.114Z,196
2023-03-12T07:50:55.350Z,202
2023-03-12T07:52:11.581Z,208
2023-03-12T07:53:27.829Z,213
2023-03-12T07:54:44.070Z,219
2023-03-12T07:56:00.316Z,225
2023-03-12T07:57:16.564Z,230
2023-03-12T07:58:31.807Z,241
2023-03-12T07:59:48.043Z,241
2023-03-12T08:02:20.541Z,236
2023-03-12T08:03:36.771Z,236
2023-03-12T08:04:53.009Z,241
2023-03-12T08:06:09.263Z,236
2023-03-12T08:07:25.490Z,241
2023-03-12T08:08:41.740Z,241
2023-03-12T08:09:57.979Z,236
2023-03-12T08:11:14.210Z,225
2023-03-12T08:12:30.452Z,225
2023-03-12T08:13:46.709Z,241
2023-03-12T08:15:01.957Z,253
2023-03-12T08:16:18.198Z,253
2023-03-12T08:17:34.444Z,247
2023-03-12T08:20:06.908Z,225
2023-03-12T08:21:23.144Z,219
2023-03-12T08:22:39.392Z,225
2023-03-12T08:23:55.640Z,241
2023-03-12T08:25:11.869Z,247
2023-03-12T08:26:28.121Z,253
2023-03-12T08:27:44.354Z,253
2023-03-12T08:29:00.597Z,258
2023-03-12T08:30:16.832Z,258
2023-03-12T08:31:32.095Z,253
2023-03-12T08:32:48.346Z,258
2023-03-12T08:34:04.569Z,258
2023-03-12T08:35:20.828Z,258
2023-03-12T08:36:37.069Z,247
2023-03-12T08:37:53.310Z,247
2023-03-12T08:39:09.550Z,253
2023-03-12T08:40:25.789Z,264
2023-03-12T08:41:42.024Z,253
2023-03-12T08:42:58.265Z,253
2023-03-12T08:44:14.499Z,258
2023-03-12T08:45:30.739Z,275
2023-03-12T08:46:46.981Z,281
2023-03-12T08:48:02.248Z,286
2023-03-12T08:49:18.479Z,298
2023-03-12T08:50:34.726Z,303
2023-03-12T08:51:50.970Z,309
2023-03-12T08:53:07.209Z,315
2023-03-12T08:54:23.437Z,315
2023-03-12T08:55:39.686Z,303
2023-03-12T08:56:55.926Z,298
2023-03-12T08:58:12.169Z,298
2023-03-12T08:59:28.400Z,298
2023-03-12T09:00:44.651Z,309
2023-03-12T09:02:00.896Z,320
2023-03-12T09:03:17.139Z,326
2023-03-12T09:04:32.383Z,337
2023-03-12T09:05:48.636Z,343
2023-03-12T09:07:04.876Z,343
2023-03-12T09:08:21.101Z,343
2023-03-12T09:09:37.354Z,337
2023-03-12T09:10:53.591Z,331
2023-03-12T09:12:09.824Z,331
2023-03-12T09:13:26.076Z,331
2023-03-12T09:14:42.321Z,315
2023-03-12T09:15:58.562Z,309
2023-03-12T09:17:14.796Z,315
2023-03-12T09:18:31.032Z,326
2023-03-12T09:19:47.286Z,343
2023-03-12T09:21:02.541Z,354
2023-03-12T09:22:18.766Z,354
2023-03-12T09:23:35.018Z,343
2023-03-12T09:24:51.246Z,326
2023-03-12T09:26:07.506Z,315
2023-03-12T09:27:23.728Z,303
2023-03-12T09:28:39.975Z,286
2023-03-12T09:29:56.221Z,258
2023-03-12T09:31:12.452Z,241
2023-03-12T09:32:28.696Z,225
2023-03-12T09:35:01.171Z,236
2023-03-12T09:36:17.412Z,258
2023-03-12T09:37:32.684Z,281
2023-03-12T09:38:48.918Z,292
2023-03-12T09:41:21.409Z,309
2023-03-12T09:42:37.634Z,320
2023-03-12T09:43:53.891Z,326
2023-03-12T09:45:10.114Z,326
2023-03-12T09:46:26.364Z,331
2023-03-12T09:47:42.613Z,337
2023-03-12T09:48:58.835Z,343
2023-03-12T09:50:15.085Z,343
2023-03-12T09:51:31.321Z,343
2023-03-12T09:52:47.561Z,348
2023-03-12T09:54:02.828Z,354
2023-03-12T09:55:19.068Z,354
2023-03-12T09:56:35.307Z,354
2023-03-12T09:57:51.550Z,365
2023-03-12T09:59:07.782Z,376
2023-03-12T10:00:24.033Z,393
2023-03-12T10:01:40.263Z,405
2023-03-12T10:02:56.505Z,416
2023-03-12T10:04:12.745Z,410
2023-03-12T10:05:28.981Z,399
2023-03-12T10:06:45.237Z,393
2023-03-12T10:08:01.466Z,388
2023-03-12T10:09:17.718Z,376
2023-03-12T10:11:49.210Z,371
2023-03-12T10:13:05.443Z,365
2023-03-12T10:14:21.683Z,360
2023-03-12T10:15:37.935Z,360
2023-03-12T10:16:54.177Z,360
2023-03-12T10:18:10.405Z,348
2023-03-12T10:19:26.649Z,343
2023-03-12T10:20:42.901Z,331
2023-03-12T10:21:59.140Z,315
2023-03-12T10:23:15.375Z,303
2023-03-12T10:24:31.624Z,303
2023-03-12T10:25:47.860Z,309
2023-03-12T10:27:04.206Z,315
2023-03-12T10:28:20.452Z,320
2023-03-12T10:29:36.698Z,320
2023-03-12T10:30:52.931Z,320
2023-03-12T10:32:09.182Z,326
2023-03-12T10:34:41.661Z,360
2023-03-12T10:35:57.898Z,354
2023-03-12T10:37:14.140Z,337
2023-03-12T10:38:30.371Z,331
2023-03-12T10:39:46.619Z,326
2023-03-12T10:41:02.860Z,331
2023-03-12T10:42:19.095Z,348
2023-03-12T10:43:34.353Z,365
2023-03-12T10:44:50.600Z,360
2023-03-12T10:46:06.829Z,354
2023-03-12T10:47:23.066Z,365
2023-03-12T10:48:39.321Z,388
2023-03-12T10:49:55.556Z,399
2023-03-12T10:51:11.790Z,393
2023-03-12T10:52:28.046Z,399
2023-03-12T10:53:44.284Z,399
2023-03-12T10:55:00.523Z,410
2023-03-12T10:56:16.764Z,405
2023-03-12T10:57:33.003Z,360
2023-03-12T10:58:49.246Z,331
2023-03-12T11:00:04.490Z,292
2023-03-12T11:01:20.734Z,275
2023-03-12T11:02:36.968Z,309
2023-03-12T11:05:09.451Z,331
2023-03-12T11:06:25.692Z,326
2023-03-12T11:07:41.937Z,320
2023-03-12T11:08:58.181Z,315
2023-03-12T11:10:14.416Z,326
2023-03-12T11:11:30.649Z,360
2023-03-12T11:12:46.895Z,393
2023-03-12T11:14:03.144Z,388
2023-03-12T11:15:19.370Z,360
2023-03-12T11:16:34.624Z,337
2023-03-12T11:17:50.877Z,326
2023-03-12T11:19:07.135Z,309
2023-03-12T11:20:23.344Z,292
2023-03-12T11:21:39.592Z,281
2023-03-12T11:22:55.826Z,281
2023-03-12T11:24:12.068Z,270
2023-03-12T11:25:28.321Z,264
2023-03-12T11:26:44.558Z,258
2023-03-12T11:28:00.793Z,247
2023-03-12T11:29:17.039Z,241
2023-03-12T11:30:33.272Z,241
2023-03-12T11:31:49.517Z,247
2023-03-12T11:33:04.778Z,258
2023-03-12T11:34:21.008Z,275
2023-03-12T11:35:37.255Z,292
2023-03-12T11:36:53.495Z,292
2023-03-12T11:38:09.730Z,286
2023-03-12T11:39:25.975Z,286
2023-03-12T11:40:41.228Z,303
2023-03-12T11:41:57.475Z,320
2023-03-12T11:43:13.713Z,337
2023-03-12T11:44:29.954Z,360
2023-03-12T11:45:46.199Z,371
2023-03-12T11:47:02.429Z,388
2023-03-12T11:48:18.670Z,399
2023-03-12T11:49:34.914Z,399
2023-03-12T11:50:51.151Z,388
2023-03-12T11:52:07.393Z,382
2023-03-12T11:53:23.641Z,388
2023-03-12T11:54:39.864Z,393
2023-03-12T11:55:56.122Z,382
2023-03-12T11:57:11.370Z,365
2023-03-12T11:58:27.612Z,343
2023-03-12T11:59:43.854Z,315
2023-03-12T12:01:00.083Z,315
2023-03-12T12:02:16.337Z,337
2023-03-12T12:03:32.570Z,348
2023-03-12T12:06:05.042Z,382
2023-03-12T12:07:21.289Z,382
2023-03-12T12:08:37.000Z,382
2023-03-12T12:09:53.778Z,376
2023-03-12T12:11:10.000Z,354
2023-03-12T12:12:26.259Z,343
2023-03-12T12:13:41.516Z,354
2023-03-12T12:14:57.751Z,371
2023-03-12T12:16:13.984Z,382
2023-03-12T12:17:30.229Z,371
2023-03-12T12:18:46.476Z,360
2023-03-12T12:20:02.710Z,360
2023-03-12T12:21:18.938Z,343
2023-03-12T12:22:35.192Z,331
2023-03-12T12:23:51.418Z,331
2023-03-12T12:25:07.676Z,320
2023-03-12T12:26:23.905Z,315
2023-03-12T12:27:40.156Z,326
2023-03-12T12:28:56.381Z,337
2023-03-12T12:30:12.742Z,348
2023-03-12T12:31:28.978Z,360
2023-03-12T12:32:45.236Z,371
2023-03-12T12:34:01.464Z,365
2023-03-12T12:35:17.710Z,354
2023-03-12T12:36:33.938Z,343
2023-03-12T12:37:50.191Z,337
2023-03-12T12:39:06.420Z,337
2023-03-12T12:40:22.664Z,326
2023-03-12T12:41:38.908Z,309
2023-03-12T12:42:55.148Z,286
2023-03-12T12:44:11.378Z,258
2023-03-12T12:45:27.620Z,253
2023-03-12T12:46:42.882Z,258
2023-03-12T12:47:59.128Z,253
2023-03-12T12:49:15.373Z,258
2023-03-12T12:50:31.599Z,258
2023-03-12T12:51:47.847Z,264
2023-03-12T12:53:04.085Z,270
2023-03-12T12:54:20.322Z,275
2023-03-12T12:55:36.566Z,286
2023-03-12T12:56:52.807Z,286
2023-03-12T12:58:09.038Z,275
2023-03-12T12:59:25.277Z,258
2023-03-12T13:01:57.757Z,247
2023-03-12T13:03:13.024Z,241
2023-03-12T13:04:29.264Z,241
2023-03-12T13:05:45.494Z,253
2023-03-12T13:07:01.734Z,253
2023-03-12T13:08:17.991Z,270
2023-03-12T13:09:34.215Z,286
2023-03-12T13:10:50.463Z,281
2023-03-12T13:12:06.704Z,270
2023-03-12T13:13:22.938Z,253
2023-03-12T13:14:39.174Z,253
2023-03-12T13:15:55.431Z,247
2023-03-12T13:17:11.656Z,241
2023-03-12T13:19:44.137Z,247
2023-03-12T13:20:59.403Z,247
2023-03-12T13:22:15.638Z,247
2023-03-12T13:23:31.885Z,241
2023-03-12T13:24:48.128Z,230
2023-03-12T13:26:04.357Z,219
2023-03-12T13:27:20.599Z,208
2023-03-12T13:28:36.837Z,208
2023-03-12T13:29:53.087Z,213
2023-03-12T13:31:09.322Z,219
2023-03-12T13:32:25.563Z,219
2023-03-12T13:33:41.801Z,236
2023-03-12T13:34:58.040Z,241
2023-03-12T13:37:30.525Z,241
2023-03-12T13:38:45.776Z,236
2023-03-12T13:40:02.029Z,230
2023-03-12T13:41:18.267Z,225
2023-03-12T13:42:34.506Z,230
2023-03-12T13:43:50.742Z,213
2023-03-12T13:45:06.978Z,196
2023-03-12T13:46:23.223Z,196
2023-03-12T13:47:39.460Z,208
2023-03-12T13:48:55.699Z,219
2023-03-12T13:50:11.948Z,230
2023-03-12T13:51:28.182Z,208
2023-03-12T13:52:44.422Z,185
2023-03-12T13:54:00.660Z,191
2023-03-12T13:55:15.907Z,213
2023-03-12T13:56:32.148Z,230
2023-03-12T13:57:48.387Z,236
2023-03-12T13:59:04.641Z,247
2023-03-12T14:00:20.874Z,230
2023-03-12T14:01:37.116Z,202
2023-03-12T14:02:53.362Z,174
2023-03-12T14:04:09.606Z,151
2023-03-12T14:05:25.838Z,140
2023-03-12T14:06:42.081Z,163
2023-03-12T14:07:58.309Z,174
2023-03-12T14:09:14.556Z,185
2023-03-12T14:10:30.793Z,185
2023-03-12T14:11:46.054Z,202
2023-03-12T14:13:02.296Z,219
2023-03-12T14:14:18.533Z,213
2023-03-12T14:15:34.767Z,213
2023-03-12T14:16:51.011Z,225
2023-03-12T14:18:07.245Z,225
2023-03-12T14:19:23.487Z,213
2023-03-12T14:20:39.737Z,196
2023-03-12T14:21:55.985Z,174
2023-03-12T14:23:12.210Z,168
2023-03-12T14:24:28.444Z,174
2023-03-12T14:25:44.692Z,180
2023-03-12T14:27:00.931Z,180
2023-03-12T14:28:16.193Z,180
2023-03-12T14:29:32.436Z,174
2023-03-12T14:30:48.662Z,151
2023-03-12T14:32:04.902Z,135
2023-03-12T14:33:21.149Z,135
2023-03-12T14:34:37.387Z,168
2023-03-12T14:37:09.869Z,168
2023-03-12T14:38:26.103Z,140
2023-03-12T14:39:42.363Z,118
2023-03-12T14:40:58.597Z,112
2023-03-12T14:42:14.843Z,106
2023-03-12T14:43:31.069Z,112
2023-03-12T14:44:46.338Z,118
2023-03-12T14:46:02.578Z,118
2023-03-12T14:47:18.811Z,112
2023-03-12T14:48:35.050Z,101
2023-03-12T14:49:51.292Z,112
2023-03-12T14:51:07.531Z,135
2023-03-12T14:52:23.766Z,140
2023-03-12T14:53:40.003Z,151
2023-03-12T14:54:56.252Z,151
2023-03-12T14:56:12.481Z,151
2023-03-12T14:57:28.726Z,151
2023-03-12T14:58:44.975Z,146
2023-03-12T15:00:01.209Z,146
2023-03-12T15:01:16.469Z,135
2023-03-12T15:02:32.709Z,123
2023-03-12T15:03:48.946Z,129
2023-03-12T15:05:05.194Z,146
2023-03-12T15:06:21.429Z,157
2023-03-12T15:07:37.680Z,174
2023-03-12T15:08:53.905Z,191
2023-03-12T15:10:10.158Z,163
2023-03-12T15:11:26.386Z,140
2023-03-12T15:13:58.871Z,95
2023-03-12T15:15:15.101Z,84
2023-03-12T15:16:31.343Z,73
2023-03-12T15:17:46.608Z,61
2023-03-12T15:19:02.841Z,61
2023-03-12T15:20:19.085Z,78
2023-03-12T15:21:35.323Z,78
2023-03-12T15:22:51.572Z,78
2023-03-12T15:24:07.817Z,78
2023-03-12T15:25:24.039Z,73
2023-03-12T15:26:40.280Z,67
2023-03-12T15:27:56.537Z,67
2023-03-12T15:29:12.779Z,67
2023-03-12T15:30:29.016Z,67
2023-03-12T15:33:01.493Z,56
2023-03-12T15:34:17.861Z,56
2023-03-12T15:35:34.100Z,56
2023-03-12T15:36:50.336Z,61
2023-03-12T15:38:06.567Z,56
2023-03-12T15:39:22.808Z,56
2023-03-12T15:40:39.042Z,61
2023-03-12T15:41:55.300Z,61
2023-03-12T15:43:11.543Z,50
2023-03-12T15:44:27.777Z,45
2023-03-12T15:45:44.013Z,39
2023-03-12T15:47:00.247Z,39
2023-03-12T15:48:16.495Z,39
2023-03-12T15:49:32.731Z,39
2023-03-12T15:50:49.102Z,39
2023-03-12T15:52:05.331Z,33
2023-03-12T15:53:21.581Z,28
2023-03-12T15:54:37.814Z,28
2023-03-12T15:55:54.184Z,22
2023-03-12T15:57:10.430Z,22
2023-03-12T15:58:26.660Z,16
2023-03-12T15:59:42.912Z,22
2023-03-12T16:00:59.147Z,16
2023-03-12T16:02:15.388Z,16
2023-03-12T16:03:31.621Z,16
2023-03-12T16:04:47.861Z,16
2023-03-12T16:06:04.108Z,22
2023-03-12T16:07:20.348Z,22
2023-03-12T16:08:36.592Z,22
2023-03-12T16:09:52.824Z,22
2023-03-12T16:11:09.073Z,22
2023-03-12T16:12:24.331Z,22
2023-03-12T16:13:40.557Z,22
2023-03-12T16:14:56.803Z,16
2023-03-12T16:16:13.047Z,16
2023-03-12T16:17:29.277Z,16
2023-03-12T16:20:01.766Z,11
2023-03-12T16:21:18.007Z,11
2023-03-12T16:22:34.247Z,11
2023-03-12T16:25:06.723Z,11
2023-03-12T16:26:22.968Z,11
2023-03-12T16:27:39.214Z,11
2023-03-12T16:28:54.455Z,11
2023-03-12T16:30:10.709Z,11
2023-03-12T16:31:26.948Z,11
2023-03-12T16:32:43.184Z,11
2023-03-12T16:33:59.429Z,11
2023-03-12T16:35:15.658Z,5
2023-03-12T16:36:31.909Z,5
2023-03-12T16:37:48.139Z,5
2023-03-12T16:39:04.386Z,5
2023-03-12T16:40:20.614Z,5
2023-03-12T16:41:36.857Z,5
2023-03-12T16:42:53.093Z,5
2023-03-12T16:44:09.336Z,5
2023-03-12T16:45:24.590Z,5
2023-03-12T16:47:57.077Z,5
2023-03-12T16:49:13.330Z,5
2023-03-12T16:50:29.565Z,5
2023-03-12T16:51:45.803Z,5
2023-03-12T16:53:02.048Z,5
2023-03-12T16:54:18.287Z,5
2023-03-12T16:55:34.514Z,5
2023-03-12T16:56:50.768Z,5
2023-03-12T16:58:06.996Z,0
2023-03-12T16:59:23.241Z,0
2023-03-12T17:00:39.475Z,0
2023-03-12T17:01:54.729Z,0
2023-03-12T17:03:10.983Z,0
2023-03-12T17:04:27.218Z,0
2023-03-12T17:05:43.461Z,0
2023-03-12T17:06:59.700Z,0
2023-03-12T17:08:15.945Z,0
2023-03-12T17:09:32.183Z,0
2023-03-12T17:10:48.422Z,0
2023-03-12T17:12:04.662Z,0
2023-03-12T17:13:20.892Z,0
2023-03-12T17:14:37.146Z,0
2023-03-12T17:15:53.382Z,0
2023-03-12T17:18:25.857Z,0
2023-03-12T17:19:41.112Z,0
2023-03-12T17:20:57.352Z,0
2023-03-12T17:22:13.602Z,0
2023-03-12T17:23:29.830Z,0
2023-03-12T17:24:46.087Z,0
2023-03-12T17:26:02.330Z,0
2023-03-12T17:27:18.564Z,0
2023-03-12T17:28:34.800Z,0
2023-03-12T17:29:51.050Z,0
2023-03-12T17:31:07.281Z,0
2023-03-12T17:32:23.519Z,0
2023-03-12T17:33:39.751Z,0
2023-03-12T17:34:56.047Z,0
2023-03-12T17:36:11.362Z,0
2023-03-12T17:37:27.660Z,0
2023-03-12T17:38:43.959Z,0
2023-03-12T17:41:16.552Z,0
2023-03-12T17:42:32.832Z,0
2023-03-12T17:43:49.143Z,0
2023-03-12T17:45:05.430Z,0
2023-03-12T17:46:21.725Z,0
2023-03-12T17:47:38.013Z,0
2023-03-12T17:48:54.300Z,0
2023-03-12T17:50:10.604Z,0
2023-03-12T17:51:26.892Z,0
2023-03-12T17:52:42.207Z,0
2023-03-12T17:53:58.514Z,0
2023-03-12T17:55:14.000Z,0
2023-03-12T17:56:31.095Z,0
2023-03-12T17:57:47.382Z,0
2023-03-12T17:59:03.687Z,0
2023-03-12T18:00:19.965Z,0
2023-03-12T18:01:36.265Z,0
2023-03-12T18:02:52.570Z,0
2023-03-12T18:04:08.864Z,0
2023-03-12T18:05:25.156Z,0
2023-03-12T18:06:41.438Z,0
2023-03-12T18:07:57.732Z,0
2023-03-12T18:09:13.057Z,0
2023-03-12T18:10:29.351Z,0
2023-03-12T18:11:45.649Z,0
2023-03-12T18:13:01.939Z,0
2023-03-12T18:14:18.000Z,0
2023-03-12T18:15:34.486Z,0
2023-03-12T18:16:50.714Z,0
2023-03-12T18:18:07.007Z,0
2023-03-12T18:19:23.319Z,0
2023-03-12T18:21:55.903Z,0
2023-03-12T18:23:12.193Z,0
2023-03-12T18:24:28.491Z,0
2023-03-12T18:25:44.783Z,0
2023-03-12T18:27:00.083Z,0
2023-03-12T18:29:32.678Z,0
2023-03-12T18:30:48.975Z,0
2023-03-12T18:32:05.274Z,0
2023-03-12T18:33:21.563Z,0
2023-03-12T18:34:37.866Z,0
2023-03-12T18:35:54.154Z,0
2023-03-12T18:37:10.447Z,0
2023-03-12T18:38:26.741Z,0
2023-03-12T18:39:43.032Z,0
2023-03-12T18:40:59.328Z,0
2023-03-12T18:42:15.621Z,0
2023-03-12T18:43:30.942Z,0
2023-03-12T18:44:47.236Z,0
2023-03-12T18:46:03.523Z,0
2023-03-12T18:47:19.818Z,0
2023-03-12T18:48:36.111Z,0
2023-03-12T18:49:52.400Z,0